PAL718 RPMR-RPLL
Flight info
| Callsign | PAL718 |
|---|---|
| Flight time | 1h 28m |
| Altitude | 38000 |
| Route | LATIA4P LATIA W6 LUMVI B473 LAIYA LAIYA1A |
| Aircraft | B77W/H-SDE1E2E3FGHIJ2J3J4J5M1RWXY/LB1D1 |
Departure
| Time | 2026-05-06 04:02 |
|---|---|
| Airport | General Santos International Airport (RPMR) |
Arrival
| Time | 2026-05-06 05:30 |
|---|---|
| Airport | Ninoy Aquino International Airport (RPLL) |
| Time | Latitude | Longitude | Altitude | Speed | Heading |
|---|---|---|---|---|---|
| 2026-05-06 03:26 | 6.05780 | 125.09949 | 519 ft | 0 kts | 83° |
| 2026-05-06 03:37 | 6.05779 | 125.09940 | 519 ft | 3 kts | 83° |
| 2026-05-06 03:37 | 6.05776 | 125.09919 | 519 ft | 3 kts | 83° |
| 2026-05-06 03:37 | 6.05774 | 125.09901 | 519 ft | 3 kts | 85° |
| 2026-05-06 03:37 | 6.05775 | 125.09883 | 519 ft | 3 kts | 126° |
| 2026-05-06 03:38 | 6.05789 | 125.09872 | 519 ft | 3 kts | 165° |
| 2026-05-06 03:38 | 6.05809 | 125.09869 | 519 ft | 3 kts | 173° |
| 2026-05-06 03:38 | 6.05819 | 125.09867 | 519 ft | 1 kts | 173° |
| 2026-05-06 03:42 | 6.05814 | 125.09868 | 519 ft | 1 kts | 173° |
| 2026-05-06 03:43 | 6.05803 | 125.09869 | 519 ft | 2 kts | 173° |
| 2026-05-06 03:43 | 6.05786 | 125.09872 | 519 ft | 3 kts | 173° |
| 2026-05-06 03:43 | 6.05763 | 125.09874 | 519 ft | 4 kts | 172° |
| 2026-05-06 03:43 | 6.05735 | 125.09878 | 519 ft | 4 kts | 172° |
| 2026-05-06 03:44 | 6.05702 | 125.09883 | 519 ft | 5 kts | 172° |
| 2026-05-06 03:44 | 6.05663 | 125.09888 | 519 ft | 6 kts | 172° |
| 2026-05-06 03:44 | 6.05621 | 125.09893 | 519 ft | 7 kts | 174° |
| 2026-05-06 03:44 | 6.05574 | 125.09898 | 519 ft | 7 kts | 174° |
| 2026-05-06 03:45 | 6.05522 | 125.09904 | 519 ft | 8 kts | 173° |
| 2026-05-06 03:45 | 6.05468 | 125.09910 | 519 ft | 8 kts | 174° |
| 2026-05-06 03:45 | 6.05421 | 125.09893 | 519 ft | 8 kts | 237° |
| 2026-05-06 03:45 | 6.05411 | 125.09839 | 519 ft | 8 kts | 263° |
| 2026-05-06 03:46 | 6.05405 | 125.09785 | 519 ft | 8 kts | 264° |
| 2026-05-06 03:46 | 6.05399 | 125.09730 | 519 ft | 8 kts | 264° |
| 2026-05-06 03:46 | 6.05396 | 125.09704 | 519 ft | 2 kts | 264° |
| 2026-05-06 03:46 | 6.05392 | 125.09692 | 519 ft | 2 kts | 244° |
| 2026-05-06 03:47 | 6.05359 | 125.09674 | 519 ft | 8 kts | 191° |
| 2026-05-06 03:47 | 6.05307 | 125.09681 | 518 ft | 8 kts | 172° |
| 2026-05-06 03:47 | 6.05254 | 125.09687 | 518 ft | 8 kts | 173° |
| 2026-05-06 03:47 | 6.05201 | 125.09693 | 518 ft | 8 kts | 173° |
| 2026-05-06 03:48 | 6.05149 | 125.09699 | 518 ft | 8 kts | 174° |
| 2026-05-06 03:48 | 6.05096 | 125.09704 | 519 ft | 8 kts | 174° |
| 2026-05-06 03:48 | 6.05043 | 125.09712 | 519 ft | 8 kts | 171° |
| 2026-05-06 03:48 | 6.04991 | 125.09719 | 520 ft | 8 kts | 172° |
| 2026-05-06 03:49 | 6.04938 | 125.09726 | 520 ft | 8 kts | 173° |
| 2026-05-06 03:49 | 6.04886 | 125.09732 | 520 ft | 8 kts | 173° |
| 2026-05-06 03:49 | 6.04833 | 125.09739 | 520 ft | 8 kts | 173° |
| 2026-05-06 03:49 | 6.04780 | 125.09745 | 520 ft | 8 kts | 173° |
| 2026-05-06 03:50 | 6.04727 | 125.09751 | 519 ft | 8 kts | 173° |
| 2026-05-06 03:50 | 6.04675 | 125.09758 | 519 ft | 8 kts | 172° |
| 2026-05-06 03:50 | 6.04622 | 125.09765 | 519 ft | 8 kts | 173° |
| 2026-05-06 03:50 | 6.04574 | 125.09770 | 519 ft | 6 kts | 173° |
| 2026-05-06 03:51 | 6.04533 | 125.09775 | 520 ft | 6 kts | 173° |
| 2026-05-06 03:51 | 6.04502 | 125.09790 | 520 ft | 5 kts | 130° |
| 2026-05-06 03:51 | 6.04498 | 125.09823 | 520 ft | 5 kts | 80° |
| 2026-05-06 03:51 | 6.04504 | 125.09858 | 519 ft | 5 kts | 81° |
| 2026-05-06 03:52 | 6.04509 | 125.09893 | 519 ft | 5 kts | 82° |
| 2026-05-06 03:52 | 6.04511 | 125.09916 | 519 ft | 3 kts | 93° |
| 2026-05-06 03:52 | 6.04498 | 125.09934 | 519 ft | 3 kts | 144° |
| 2026-05-06 03:52 | 6.04477 | 125.09943 | 519 ft | 3 kts | 158° |
| 2026-05-06 03:53 | 6.04455 | 125.09950 | 519 ft | 3 kts | 170° |
| 2026-05-06 03:53 | 6.04432 | 125.09952 | 519 ft | 3 kts | 174° |
| 2026-05-06 03:53 | 6.04415 | 125.09951 | 519 ft | 3 kts | 193° |
| 2026-05-06 03:53 | 6.04402 | 125.09938 | 519 ft | 3 kts | 233° |
| 2026-05-06 03:54 | 6.04395 | 125.09921 | 519 ft | 3 kts | 251° |
| 2026-05-06 03:54 | 6.04393 | 125.09910 | 519 ft | 0 kts | 260° |
| 2026-05-06 03:54 | 6.04393 | 125.09907 | 519 ft | 0 kts | 260° |
| 2026-05-06 04:00 | 6.04389 | 125.09887 | 519 ft | 8 kts | 260° |
| 2026-05-06 04:00 | 6.04381 | 125.09829 | 520 ft | 6 kts | 262° |
| 2026-05-06 04:01 | 6.04398 | 125.09793 | 520 ft | 6 kts | 327° |
| 2026-05-06 04:01 | 6.04440 | 125.09786 | 520 ft | 6 kts | 353° |
| 2026-05-06 04:01 | 6.04634 | 125.09762 | 519 ft | 63 kts | 353° |
| 2026-05-06 04:01 | 6.05354 | 125.09674 | 519 ft | 142 kts | 353° |
| 2026-05-06 04:02 | 6.06520 | 125.09537 | 692 ft | 184 kts | 348° |
| 2026-05-06 04:02 | 6.07705 | 125.09450 | 1683 ft | 164 kts | 347° |
| 2026-05-06 04:02 | 6.08820 | 125.09481 | 2378 ft | 166 kts | 353° |
| 2026-05-06 04:02 | 6.10062 | 125.09529 | 2590 ft | 189 kts | 351° |
| 2026-05-06 04:03 | 6.11450 | 125.09558 | 2719 ft | 211 kts | 357° |
| 2026-05-06 04:03 | 6.12903 | 125.10074 | 2982 ft | 241 kts | 38° |
| 2026-05-06 04:03 | 6.14049 | 125.11393 | 3493 ft | 259 kts | 57° |
| 2026-05-06 04:03 | 6.14997 | 125.12968 | 4290 ft | 267 kts | 56° |
| 2026-05-06 04:04 | 6.16071 | 125.14515 | 5249 ft | 271 kts | 53° |
| 2026-05-06 04:04 | 6.17196 | 125.16039 | 6298 ft | 272 kts | 52° |
| 2026-05-06 04:04 | 6.18341 | 125.17564 | 7178 ft | 276 kts | 52° |
| 2026-05-06 04:04 | 6.19515 | 125.19120 | 8018 ft | 282 kts | 51° |
| 2026-05-06 04:05 | 6.20708 | 125.20697 | 8978 ft | 283 kts | 52° |
| 2026-05-06 04:05 | 6.21893 | 125.22263 | 9864 ft | 287 kts | 51° |
| 2026-05-06 04:05 | 6.23334 | 125.23651 | 10424 ft | 296 kts | 32° |
| 2026-05-06 04:05 | 6.25281 | 125.24566 | 10646 ft | 325 kts | 18° |
| 2026-05-06 04:06 | 6.27571 | 125.25153 | 10910 ft | 352 kts | 12° |
| 2026-05-06 04:06 | 6.30033 | 125.25413 | 11540 ft | 363 kts | 357° |
| 2026-05-06 04:06 | 6.32533 | 125.24876 | 12464 ft | 373 kts | 340° |
| 2026-05-06 04:06 | 6.34876 | 125.23700 | 13331 ft | 380 kts | 332° |
| 2026-05-06 04:07 | 6.37198 | 125.22371 | 14155 ft | 387 kts | 332° |
| 2026-05-06 04:07 | 6.39547 | 125.21018 | 15035 ft | 392 kts | 332° |
| 2026-05-06 04:07 | 6.41931 | 125.19646 | 15860 ft | 398 kts | 332° |
| 2026-05-06 04:07 | 6.44352 | 125.18257 | 16676 ft | 405 kts | 332° |
| 2026-05-06 04:08 | 6.46823 | 125.16846 | 17456 ft | 411 kts | 332° |
| 2026-05-06 04:08 | 6.49327 | 125.15422 | 18232 ft | 417 kts | 332° |
| 2026-05-06 04:08 | 6.51877 | 125.13977 | 18910 ft | 422 kts | 332° |
| 2026-05-06 04:08 | 6.54455 | 125.12518 | 19642 ft | 426 kts | 332° |
| 2026-05-06 04:09 | 6.57049 | 125.11050 | 20365 ft | 430 kts | 332° |
| 2026-05-06 04:09 | 6.59673 | 125.09567 | 21054 ft | 435 kts | 332° |
| 2026-05-06 04:09 | 6.60533 | 125.09081 | 21275 ft | 436 kts | 332° |
| 2026-05-06 04:10 | 6.70465 | 125.03460 | 23679 ft | 453 kts | 332° |
| 2026-05-06 04:10 | 6.73223 | 125.01899 | 24221 ft | 456 kts | 332° |
| 2026-05-06 04:10 | 6.76006 | 125.00323 | 24770 ft | 459 kts | 332° |
| 2026-05-06 04:11 | 6.78800 | 124.98740 | 25323 ft | 463 kts | 332° |
| 2026-05-06 04:11 | 6.81614 | 124.97145 | 25863 ft | 466 kts | 332° |
| 2026-05-06 04:11 | 6.84449 | 124.95540 | 26366 ft | 470 kts | 332° |
| 2026-05-06 04:11 | 6.87325 | 124.93931 | 26870 ft | 473 kts | 334° |
| 2026-05-06 04:12 | 6.90332 | 124.92567 | 27357 ft | 476 kts | 340° |
| 2026-05-06 04:12 | 6.93477 | 124.91487 | 27862 ft | 479 kts | 345° |
| 2026-05-06 04:12 | 6.96735 | 124.90726 | 28352 ft | 481 kts | 349° |
| 2026-05-06 04:12 | 7.00033 | 124.90073 | 28838 ft | 485 kts | 349° |
| 2026-05-06 04:13 | 7.03314 | 124.89434 | 29297 ft | 488 kts | 349° |
| 2026-05-06 04:13 | 7.06661 | 124.88773 | 29756 ft | 491 kts | 349° |
| 2026-05-06 04:13 | 7.10021 | 124.88095 | 30173 ft | 494 kts | 349° |
| 2026-05-06 04:13 | 7.13400 | 124.87402 | 30574 ft | 496 kts | 349° |
| 2026-05-06 04:14 | 7.16783 | 124.86701 | 30963 ft | 498 kts | 349° |
| 2026-05-06 04:14 | 7.20186 | 124.85996 | 31309 ft | 500 kts | 349° |
| 2026-05-06 04:14 | 7.23605 | 124.85289 | 31662 ft | 501 kts | 349° |
| 2026-05-06 04:14 | 7.27019 | 124.84583 | 32115 ft | 500 kts | 348° |
| 2026-05-06 04:15 | 7.30427 | 124.83880 | 32631 ft | 498 kts | 348° |
| 2026-05-06 04:15 | 7.33815 | 124.83182 | 33156 ft | 496 kts | 348° |
| 2026-05-06 04:15 | 7.37190 | 124.82487 | 33660 ft | 494 kts | 348° |
| 2026-05-06 04:15 | 7.40559 | 124.81792 | 34079 ft | 494 kts | 348° |
| 2026-05-06 04:16 | 7.43924 | 124.81098 | 34482 ft | 493 kts | 348° |
| 2026-05-06 04:16 | 7.47275 | 124.80407 | 34884 ft | 492 kts | 348° |
| 2026-05-06 04:16 | 7.50627 | 124.79715 | 35290 ft | 491 kts | 348° |
| 2026-05-06 04:16 | 7.53976 | 124.79024 | 35678 ft | 490 kts | 348° |
| 2026-05-06 04:17 | 7.57316 | 124.78334 | 36083 ft | 489 kts | 348° |
| 2026-05-06 04:17 | 7.60646 | 124.77646 | 36486 ft | 488 kts | 348° |
| 2026-05-06 04:17 | 7.63925 | 124.76969 | 36863 ft | 487 kts | 348° |
| 2026-05-06 04:17 | 7.67286 | 124.76275 | 37232 ft | 486 kts | 348° |
| 2026-05-06 04:18 | 7.70557 | 124.75599 | 37607 ft | 485 kts | 348° |
| 2026-05-06 04:18 | 7.73870 | 124.74914 | 37852 ft | 488 kts | 348° |
| 2026-05-06 04:18 | 7.80568 | 124.73530 | 37890 ft | 490 kts | 349° |
| 2026-05-06 04:19 | 7.87193 | 124.72160 | 37908 ft | 483 kts | 349° |
| 2026-05-06 04:19 | 7.93786 | 124.70797 | 37914 ft | 483 kts | 349° |
| 2026-05-06 04:20 | 8.00364 | 124.69436 | 37910 ft | 483 kts | 349° |
| 2026-05-06 04:20 | 8.06948 | 124.68078 | 37913 ft | 483 kts | 349° |
| 2026-05-06 04:21 | 8.13554 | 124.66712 | 37906 ft | 484 kts | 349° |
| 2026-05-06 04:21 | 8.20117 | 124.65356 | 37903 ft | 485 kts | 349° |
| 2026-05-06 04:22 | 8.26732 | 124.63988 | 37890 ft | 485 kts | 350° |
| 2026-05-06 04:23 | 8.36658 | 124.61933 | 37875 ft | 485 kts | 348° |
| 2026-05-06 04:23 | 8.43096 | 124.59869 | 37876 ft | 487 kts | 338° |
| 2026-05-06 04:24 | 8.49111 | 124.56694 | 37882 ft | 488 kts | 331° |
| 2026-05-06 04:24 | 8.54977 | 124.53238 | 37870 ft | 488 kts | 330° |
| 2026-05-06 04:25 | 8.60855 | 124.49798 | 37863 ft | 488 kts | 331° |
| 2026-05-06 04:25 | 8.66746 | 124.46389 | 37862 ft | 488 kts | 331° |
| 2026-05-06 04:26 | 8.72647 | 124.42985 | 37865 ft | 488 kts | 331° |
| 2026-05-06 04:26 | 8.78520 | 124.39594 | 37862 ft | 489 kts | 331° |
| 2026-05-06 04:27 | 8.84429 | 124.36179 | 37867 ft | 489 kts | 331° |
| 2026-05-06 04:27 | 8.90350 | 124.32755 | 37862 ft | 490 kts | 331° |
| 2026-05-06 04:28 | 8.96268 | 124.29330 | 37867 ft | 491 kts | 331° |
| 2026-05-06 04:28 | 9.02198 | 124.25899 | 37873 ft | 490 kts | 331° |
| 2026-05-06 04:29 | 9.08126 | 124.22465 | 37863 ft | 491 kts | 331° |
| 2026-05-06 04:29 | 9.14046 | 124.19031 | 37864 ft | 491 kts | 330° |
| 2026-05-06 04:30 | 9.19936 | 124.15612 | 37867 ft | 491 kts | 330° |
| 2026-05-06 04:30 | 9.25863 | 124.12171 | 37869 ft | 491 kts | 330° |
| 2026-05-06 04:31 | 9.31790 | 124.08727 | 37874 ft | 491 kts | 330° |
| 2026-05-06 04:31 | 9.37727 | 124.05277 | 37868 ft | 491 kts | 330° |
| 2026-05-06 04:32 | 9.43677 | 124.01844 | 37860 ft | 492 kts | 330° |
| 2026-05-06 04:32 | 9.49633 | 123.98408 | 37874 ft | 492 kts | 330° |
| 2026-05-06 04:33 | 9.55586 | 123.94954 | 37875 ft | 492 kts | 330° |
| 2026-05-06 04:33 | 9.61527 | 123.91499 | 37865 ft | 493 kts | 330° |
| 2026-05-06 04:34 | 9.67436 | 123.88064 | 37868 ft | 492 kts | 330° |
| 2026-05-06 04:34 | 9.73387 | 123.84604 | 37855 ft | 493 kts | 330° |
| 2026-05-06 04:35 | 9.79336 | 123.81143 | 37855 ft | 493 kts | 330° |
| 2026-05-06 04:35 | 9.85286 | 123.77680 | 37866 ft | 492 kts | 330° |
| 2026-05-06 04:36 | 9.91227 | 123.74222 | 37856 ft | 492 kts | 330° |
| 2026-05-06 04:36 | 9.97166 | 123.70761 | 37864 ft | 492 kts | 330° |
| 2026-05-06 04:37 | 10.03066 | 123.67319 | 37866 ft | 492 kts | 330° |
| 2026-05-06 04:37 | 10.09011 | 123.63849 | 37870 ft | 492 kts | 329° |
| 2026-05-06 04:38 | 10.14953 | 123.60379 | 37865 ft | 492 kts | 330° |
| 2026-05-06 04:38 | 10.20886 | 123.56912 | 37860 ft | 492 kts | 330° |
| 2026-05-06 04:39 | 10.26813 | 123.53447 | 37868 ft | 491 kts | 330° |
| 2026-05-06 04:39 | 10.32748 | 123.49981 | 37854 ft | 492 kts | 330° |
| 2026-05-06 04:40 | 10.38686 | 123.46518 | 37881 ft | 492 kts | 330° |
| 2026-05-06 04:40 | 10.44636 | 123.43047 | 37867 ft | 492 kts | 329° |
| 2026-05-06 04:41 | 10.50575 | 123.39577 | 37875 ft | 492 kts | 329° |
| 2026-05-06 04:41 | 10.56513 | 123.36107 | 37867 ft | 492 kts | 329° |
| 2026-05-06 04:42 | 10.62448 | 123.32637 | 37873 ft | 492 kts | 329° |
| 2026-05-06 04:42 | 10.68349 | 123.29188 | 37880 ft | 492 kts | 329° |
| 2026-05-06 04:43 | 10.74287 | 123.25718 | 37872 ft | 493 kts | 329° |
| 2026-05-06 04:43 | 10.80225 | 123.22240 | 37881 ft | 492 kts | 329° |
| 2026-05-06 04:44 | 10.86148 | 123.18766 | 37875 ft | 492 kts | 329° |
| 2026-05-06 04:44 | 10.92076 | 123.15287 | 37883 ft | 491 kts | 329° |
| 2026-05-06 04:45 | 10.98000 | 123.11811 | 37868 ft | 492 kts | 328° |
| 2026-05-06 04:45 | 11.03925 | 123.08333 | 37883 ft | 492 kts | 328° |
| 2026-05-06 04:46 | 11.08857 | 123.05438 | 37875 ft | 492 kts | 329° |
| 2026-05-06 04:46 | 11.14779 | 123.01958 | 37881 ft | 491 kts | 329° |
| 2026-05-06 04:47 | 11.21659 | 122.97914 | 37875 ft | 491 kts | 328° |
| 2026-05-06 04:47 | 11.27569 | 122.94436 | 37885 ft | 490 kts | 329° |
| 2026-05-06 04:48 | 11.33478 | 122.90959 | 37879 ft | 490 kts | 328° |
| 2026-05-06 04:48 | 11.38424 | 122.88048 | 37881 ft | 490 kts | 329° |
| 2026-05-06 04:49 | 11.44290 | 122.84594 | 37889 ft | 490 kts | 329° |
| 2026-05-06 04:49 | 11.50187 | 122.81118 | 37883 ft | 489 kts | 329° |
| 2026-05-06 04:50 | 11.56082 | 122.77642 | 37886 ft | 489 kts | 329° |
| 2026-05-06 04:50 | 11.61919 | 122.74082 | 37882 ft | 488 kts | 326° |
| 2026-05-06 04:51 | 11.67549 | 122.70298 | 37890 ft | 487 kts | 325° |
| 2026-05-06 04:51 | 11.73189 | 122.66453 | 37895 ft | 487 kts | 325° |
| 2026-05-06 04:52 | 11.78842 | 122.62624 | 37899 ft | 487 kts | 325° |
| 2026-05-06 04:52 | 11.84496 | 122.58813 | 37894 ft | 487 kts | 325° |
| 2026-05-06 04:53 | 11.90144 | 122.55007 | 37891 ft | 487 kts | 325° |
| 2026-05-06 04:53 | 11.95796 | 122.51195 | 37886 ft | 486 kts | 325° |
| 2026-05-06 04:54 | 12.01409 | 122.47407 | 37885 ft | 487 kts | 325° |
| 2026-05-06 04:54 | 12.07060 | 122.43592 | 37892 ft | 487 kts | 324° |
| 2026-05-06 04:55 | 12.12711 | 122.39774 | 37885 ft | 487 kts | 324° |
| 2026-05-06 04:55 | 12.18362 | 122.35953 | 37885 ft | 487 kts | 324° |
| 2026-05-06 04:56 | 12.24013 | 122.32131 | 37886 ft | 487 kts | 324° |
| 2026-05-06 04:56 | 12.29674 | 122.28300 | 37885 ft | 487 kts | 324° |
| 2026-05-06 04:57 | 12.35298 | 122.24491 | 37887 ft | 487 kts | 324° |
| 2026-05-06 04:57 | 12.40939 | 122.20635 | 37889 ft | 487 kts | 324° |
| 2026-05-06 04:58 | 12.46550 | 122.16730 | 37884 ft | 487 kts | 324° |
| 2026-05-06 04:58 | 12.52154 | 122.12823 | 37884 ft | 487 kts | 324° |
| 2026-05-06 04:59 | 12.57760 | 122.08922 | 37885 ft | 487 kts | 324° |
| 2026-05-06 04:59 | 12.63328 | 122.05050 | 37884 ft | 486 kts | 324° |
| 2026-05-06 05:00 | 12.68929 | 122.01153 | 37885 ft | 486 kts | 324° |
| 2026-05-06 05:00 | 12.74515 | 121.97266 | 37886 ft | 486 kts | 324° |
| 2026-05-06 05:01 | 12.80116 | 121.93365 | 37891 ft | 486 kts | 324° |
| 2026-05-06 05:01 | 12.85703 | 121.89472 | 37884 ft | 486 kts | 324° |
| 2026-05-06 05:02 | 12.91253 | 121.85601 | 37884 ft | 485 kts | 324° |
| 2026-05-06 05:02 | 12.96843 | 121.81702 | 37891 ft | 485 kts | 324° |
| 2026-05-06 05:03 | 13.02420 | 121.77809 | 37893 ft | 485 kts | 324° |
| 2026-05-06 05:03 | 13.08002 | 121.73910 | 37889 ft | 485 kts | 324° |
| 2026-05-06 05:04 | 13.13571 | 121.70018 | 37887 ft | 485 kts | 324° |
| 2026-05-06 05:04 | 13.16363 | 121.68067 | 37737 ft | 487 kts | 324° |
| 2026-05-06 05:04 | 13.19195 | 121.66085 | 36921 ft | 495 kts | 324° |
| 2026-05-06 05:04 | 13.22037 | 121.64097 | 36196 ft | 494 kts | 324° |
| 2026-05-06 05:05 | 13.24875 | 121.62111 | 35436 ft | 493 kts | 324° |
| 2026-05-06 05:05 | 13.27716 | 121.60123 | 34552 ft | 495 kts | 325° |
| 2026-05-06 05:05 | 13.30561 | 121.58131 | 33789 ft | 494 kts | 325° |
| 2026-05-06 05:05 | 13.33394 | 121.56148 | 33082 ft | 491 kts | 325° |
| 2026-05-06 05:06 | 13.36205 | 121.54179 | 32451 ft | 486 kts | 325° |
| 2026-05-06 05:06 | 13.38952 | 121.52255 | 31852 ft | 482 kts | 325° |
| 2026-05-06 05:06 | 13.41711 | 121.50321 | 31266 ft | 478 kts | 325° |
| 2026-05-06 05:06 | 13.44448 | 121.48401 | 30683 ft | 475 kts | 324° |
| 2026-05-06 05:07 | 13.47162 | 121.46497 | 30267 ft | 468 kts | 325° |
| 2026-05-06 05:07 | 13.49814 | 121.44636 | 30080 ft | 456 kts | 325° |
| 2026-05-06 05:07 | 13.52400 | 121.42822 | 29868 ft | 445 kts | 325° |
| 2026-05-06 05:07 | 13.54925 | 121.41050 | 29653 ft | 434 kts | 325° |
| 2026-05-06 05:08 | 13.57388 | 121.39320 | 29429 ft | 424 kts | 325° |
| 2026-05-06 05:08 | 13.59795 | 121.37578 | 28931 ft | 422 kts | 323° |
| 2026-05-06 05:08 | 13.62161 | 121.35816 | 28485 ft | 418 kts | 323° |
| 2026-05-06 05:08 | 13.64505 | 121.34053 | 28040 ft | 416 kts | 323° |
| 2026-05-06 05:09 | 13.66832 | 121.32303 | 27591 ft | 413 kts | 323° |
| 2026-05-06 05:09 | 13.69152 | 121.30563 | 27149 ft | 411 kts | 323° |
| 2026-05-06 05:09 | 13.71456 | 121.28839 | 26703 ft | 409 kts | 323° |
| 2026-05-06 05:09 | 13.73746 | 121.27128 | 26272 ft | 407 kts | 324° |
| 2026-05-06 05:10 | 13.76034 | 121.25421 | 25836 ft | 405 kts | 324° |
| 2026-05-06 05:10 | 13.78308 | 121.23725 | 25418 ft | 403 kts | 323° |
| 2026-05-06 05:10 | 13.80571 | 121.22036 | 25042 ft | 400 kts | 324° |
| 2026-05-06 05:10 | 13.82829 | 121.20351 | 24604 ft | 399 kts | 324° |
| 2026-05-06 05:11 | 13.85070 | 121.18679 | 24236 ft | 396 kts | 323° |
| 2026-05-06 05:11 | 13.87260 | 121.17043 | 23976 ft | 391 kts | 324° |
| 2026-05-06 05:11 | 13.89452 | 121.15406 | 23454 ft | 392 kts | 324° |
| 2026-05-06 05:11 | 13.91682 | 121.13740 | 22797 ft | 396 kts | 324° |
| 2026-05-06 05:12 | 13.93893 | 121.12087 | 22526 ft | 389 kts | 324° |
| 2026-05-06 05:12 | 13.96052 | 121.10473 | 22386 ft | 378 kts | 324° |
| 2026-05-06 05:12 | 13.98174 | 121.08887 | 22044 ft | 374 kts | 324° |
| 2026-05-06 05:12 | 14.00256 | 121.07331 | 21825 ft | 366 kts | 324° |
| 2026-05-06 05:13 | 14.02296 | 121.05805 | 21586 ft | 360 kts | 324° |
| 2026-05-06 05:13 | 14.04313 | 121.04297 | 21213 ft | 357 kts | 324° |
| 2026-05-06 05:13 | 14.06328 | 121.02790 | 20768 ft | 357 kts | 324° |
| 2026-05-06 05:13 | 14.08343 | 121.01282 | 20347 ft | 358 kts | 324° |
| 2026-05-06 05:14 | 14.10346 | 120.99783 | 20024 ft | 354 kts | 324° |
| 2026-05-06 05:14 | 14.12339 | 120.98290 | 19657 ft | 352 kts | 324° |
| 2026-05-06 05:14 | 14.14256 | 120.96854 | 19412 ft | 330 kts | 324° |
| 2026-05-06 05:14 | 14.16066 | 120.95500 | 19074 ft | 312 kts | 324° |
| 2026-05-06 05:15 | 14.17810 | 120.94230 | 18551 ft | 303 kts | 328° |
| 2026-05-06 05:15 | 14.19619 | 120.93136 | 17972 ft | 300 kts | 332° |
| 2026-05-06 05:15 | 14.21381 | 120.92125 | 17654 ft | 288 kts | 332° |
| 2026-05-06 05:15 | 14.23124 | 120.91117 | 17341 ft | 285 kts | 331° |
| 2026-05-06 05:16 | 14.24763 | 120.90009 | 16992 ft | 280 kts | 315° |
| 2026-05-06 05:16 | 14.25774 | 120.88337 | 16691 ft | 275 kts | 285° |
| 2026-05-06 05:16 | 14.25938 | 120.86434 | 16415 ft | 268 kts | 262° |
| 2026-05-06 05:16 | 14.25419 | 120.84614 | 16101 ft | 264 kts | 241° |
| 2026-05-06 05:17 | 14.24507 | 120.82978 | 15824 ft | 264 kts | 239° |
| 2026-05-06 05:17 | 14.23571 | 120.81334 | 15541 ft | 267 kts | 239° |
| 2026-05-06 05:17 | 14.22632 | 120.79669 | 15248 ft | 269 kts | 239° |
| 2026-05-06 05:17 | 14.21696 | 120.77995 | 14919 ft | 269 kts | 239° |
| 2026-05-06 05:18 | 14.20771 | 120.76335 | 14633 ft | 267 kts | 239° |
| 2026-05-06 05:18 | 14.19843 | 120.74687 | 14326 ft | 265 kts | 239° |
| 2026-05-06 05:18 | 14.18916 | 120.73053 | 14037 ft | 262 kts | 239° |
| 2026-05-06 05:18 | 14.18002 | 120.71440 | 13747 ft | 260 kts | 239° |
| 2026-05-06 05:19 | 14.17107 | 120.69862 | 13454 ft | 255 kts | 239° |
| 2026-05-06 05:19 | 14.16431 | 120.68200 | 12834 ft | 251 kts | 264° |
| 2026-05-06 05:19 | 14.16594 | 120.66445 | 12144 ft | 248 kts | 295° |
| 2026-05-06 05:19 | 14.17593 | 120.65043 | 11469 ft | 243 kts | 326° |
| 2026-05-06 05:20 | 14.19117 | 120.64378 | 10751 ft | 240 kts | 358° |
| 2026-05-06 05:20 | 14.20727 | 120.64605 | 10139 ft | 232 kts | 23° |
| 2026-05-06 05:20 | 14.22193 | 120.65246 | 9656 ft | 227 kts | 27° |
| 2026-05-06 05:20 | 14.23645 | 120.65905 | 8985 ft | 229 kts | 27° |
| 2026-05-06 05:21 | 14.25097 | 120.66578 | 8424 ft | 227 kts | 27° |
| 2026-05-06 05:21 | 14.26557 | 120.67224 | 7950 ft | 230 kts | 22° |
| 2026-05-06 05:21 | 14.28075 | 120.67728 | 7616 ft | 228 kts | 22° |
| 2026-05-06 05:21 | 14.29538 | 120.68311 | 7272 ft | 224 kts | 28° |
| 2026-05-06 05:22 | 14.30871 | 120.69107 | 6869 ft | 220 kts | 39° |
| 2026-05-06 05:22 | 14.32049 | 120.70099 | 6497 ft | 217 kts | 45° |
| 2026-05-06 05:22 | 14.33082 | 120.71198 | 6106 ft | 216 kts | 51° |
| 2026-05-06 05:22 | 14.34033 | 120.72387 | 5736 ft | 213 kts | 56° |
| 2026-05-06 05:23 | 14.34905 | 120.73617 | 5323 ft | 213 kts | 58° |
| 2026-05-06 05:23 | 14.35716 | 120.74880 | 4974 ft | 210 kts | 60° |
| 2026-05-06 05:23 | 14.37215 | 120.77437 | 4247 ft | 207 kts | 63° |
| 2026-05-06 05:24 | 14.37915 | 120.78681 | 4064 ft | 192 kts | 63° |
| 2026-05-06 05:24 | 14.38539 | 120.79795 | 3996 ft | 168 kts | 63° |
| 2026-05-06 05:24 | 14.39103 | 120.80810 | 3954 ft | 160 kts | 64° |
| 2026-05-06 05:24 | 14.39662 | 120.81820 | 3811 ft | 164 kts | 63° |
| 2026-05-06 05:25 | 14.40232 | 120.82844 | 3663 ft | 166 kts | 64° |
| 2026-05-06 05:25 | 14.40800 | 120.83866 | 3469 ft | 167 kts | 63° |
| 2026-05-06 05:25 | 14.41370 | 120.84887 | 3263 ft | 163 kts | 63° |
| 2026-05-06 05:25 | 14.41933 | 120.85900 | 3077 ft | 162 kts | 63° |
| 2026-05-06 05:26 | 14.42490 | 120.86899 | 2879 ft | 159 kts | 63° |
| 2026-05-06 05:26 | 14.43041 | 120.87892 | 2709 ft | 161 kts | 62° |
| 2026-05-06 05:26 | 14.43604 | 120.88906 | 2482 ft | 162 kts | 62° |
| 2026-05-06 05:26 | 14.44169 | 120.89920 | 2265 ft | 165 kts | 62° |
| 2026-05-06 05:27 | 14.44741 | 120.90951 | 2043 ft | 166 kts | 63° |
| 2026-05-06 05:27 | 14.45312 | 120.91978 | 1806 ft | 163 kts | 63° |
| 2026-05-06 05:27 | 14.45860 | 120.92965 | 1583 ft | 155 kts | 63° |
| 2026-05-06 05:27 | 14.46388 | 120.93910 | 1366 ft | 150 kts | 63° |
| 2026-05-06 05:28 | 14.46909 | 120.94846 | 1203 ft | 154 kts | 63° |
| 2026-05-06 05:28 | 14.47444 | 120.95809 | 999 ft | 156 kts | 62° |
| 2026-05-06 05:28 | 14.47985 | 120.96777 | 800 ft | 155 kts | 63° |
| 2026-05-06 05:28 | 14.48515 | 120.97722 | 631 ft | 149 kts | 62° |
| 2026-05-06 05:29 | 14.49037 | 120.98675 | 412 ft | 155 kts | 63° |
| 2026-05-06 05:29 | 14.49579 | 120.99650 | 230 ft | 158 kts | 63° |
| 2026-05-06 05:29 | 14.50123 | 121.00617 | 67 ft | 152 kts | 62° |
| 2026-05-06 05:29 | 14.50585 | 121.01449 | 64 ft | 109 kts | 59° |
| 2026-05-06 05:30 | 14.50872 | 121.01962 | 64 ft | 56 kts | 60° |
| 2026-05-06 05:30 | 14.51003 | 121.02191 | 69 ft | 19 kts | 50° |
| 2026-05-06 05:30 | 14.51064 | 121.02247 | 68 ft | 11 kts | 38° |
| 2026-05-06 05:30 | 14.51133 | 121.02302 | 68 ft | 13 kts | 37° |
| 2026-05-06 05:31 | 14.51190 | 121.02298 | 69 ft | 9 kts | 319° |
| 2026-05-06 05:31 | 14.51179 | 121.02237 | 64 ft | 10 kts | 245° |
| 2026-05-06 05:31 | 14.51144 | 121.02174 | 64 ft | 11 kts | 239° |
| 2026-05-06 05:31 | 14.51106 | 121.02104 | 65 ft | 12 kts | 241° |
| 2026-05-06 05:32 | 14.51063 | 121.02028 | 63 ft | 13 kts | 239° |
| 2026-05-06 05:32 | 14.51018 | 121.01950 | 63 ft | 13 kts | 239° |
| 2026-05-06 05:32 | 14.50975 | 121.01871 | 64 ft | 13 kts | 241° |
| 2026-05-06 05:32 | 14.50932 | 121.01791 | 65 ft | 13 kts | 240° |
| 2026-05-06 05:33 | 14.50891 | 121.01718 | 64 ft | 7 kts | 240° |
| 2026-05-06 05:33 | 14.50889 | 121.01676 | 64 ft | 6 kts | 292° |
| 2026-05-06 05:33 | 14.50915 | 121.01639 | 66 ft | 6 kts | 296° |
| 2026-05-06 05:33 | 14.50907 | 121.01596 | 63 ft | 6 kts | 245° |
| 2026-05-06 05:34 | 14.50886 | 121.01559 | 65 ft | 3 kts | 239° |
| 2026-05-06 05:34 | 14.50875 | 121.01538 | 66 ft | 3 kts | 252° |
| 2026-05-06 05:34 | 14.50882 | 121.01515 | 66 ft | 3 kts | 305° |
| 2026-05-06 05:34 | 14.50901 | 121.01500 | 65 ft | 3 kts | 319° |
| 2026-05-06 05:35 | 14.50917 | 121.01483 | 65 ft | 3 kts | 315° |
| 2026-05-06 05:35 | 14.50933 | 121.01466 | 68 ft | 1 kts | 314° |
| 2026-05-06 05:35 | 14.50939 | 121.01460 | 65 ft | 1 kts | 315° |